Harrison Cross Roads, North Carolina
Current Conditions -  °F | °C
As of 10:55 AM on Friday 28 Nov 2014 (Local Time) from KSIF Reporting Station
Clear Clear  
Wind Chill: 34°   Ceiling: Unl
Heat Index: 38°   Visibility: 10mi
Dew Point: 18°   Wind: 6mph
Humidity: 44%   Direction: 360°N
Pressure: 30.37"   Gusts: NA
Location:  36.3355°N, 79.6561°W
Report Text: KSIF 281555Z AUTO 36005KT 10SM CLR 03/M08 A3037 RMK AO2 P0002 T00341078
Loading
Personal Weather Stations






























Interactive Weather Map New forecast layout! Learn more

10-Day Weather Forecast

Advertisements
Track Severe Weather on mobile